Wetterdaten: aktuell Donnerstag, 03.09.2026 19:30
Datum Zeit Temperatur Temp. +5 cm Temp. -10 cm Feuchte A. Luftdruck Regen Wind Richtung Richtung Zeit Sonne UV-I Solarstrahlg Taupunkt Windchill Windböen
03.09.2026 19:30 19,9 °C 18,3 °C 17,8 °C 71 % 1015,8 hPa 0,0 l/m² 14,1 km/h (3 Bft) W-NW 302 ° 40 min 0,0 UV-I 51 W/m² 14,5 °C 19,9 °C 24,1 km/h (4 Bft)
03.09.2026 18:30 20,7 °C 20,6 °C 17,8 °C 69 % 1015,8 hPa 0,0 l/m² 12,4 km/h (2 Bft) W 271 ° 14 min 0,0 UV-I 130 W/m² 14,8 °C 20,7 °C 25,7 km/h (4 Bft)
03.09.2026 17:30 21,2 °C 21,1 °C 17,8 °C 67 % 1016,1 hPa 0,0 l/m² 12,2 km/h (2 Bft) W 260 ° 8 min 0,0 UV-I 90 W/m² 14,8 °C 21,2 °C 20,9 km/h (4 Bft)
03.09.2026 16:30 21,9 °C 22,8 °C 17,8 °C 63 % 1015,8 hPa 0,0 l/m² 17,1 km/h (3 Bft) W-NW 285 ° 4 min 0,9 UV-I 155 W/m² 14,5 °C 21,9 °C 33,8 km/h (5 Bft)
03.09.2026 15:30 23,0 °C 22,2 °C 17,8 °C 56 % 1015,6 hPa 0,0 l/m² 13,4 km/h (3 Bft) W 261 ° 2 min 0,6 UV-I 88 W/m² 13,7 °C 23,0 °C 20,9 km/h (4 Bft)
03.09.2026 14:30 23,8 °C 25,0 °C 17,8 °C 53 % 1015,4 hPa 0,0 l/m² 13,7 km/h (3 Bft) W-NW 283 ° 14 min 2,3 UV-I 364 W/m² 13,6 °C 23,8 °C 19,3 km/h (3 Bft)
03.09.2026 13:30 23,4 °C 26,1 °C 17,2 °C 53 % 1016,2 hPa 0,0 l/m² 10,0 km/h (2 Bft) NW 326 ° 20 min 2,4 UV-I 399 W/m² 13,3 °C 23,4 °C 22,5 km/h (4 Bft)
03.09.2026 12:30 21,9 °C 23,3 °C 17,2 °C 55 % 1016,9 hPa 0,0 l/m² 14,3 km/h (3 Bft) W-NW 302 ° 24 min 2,0 UV-I 322 W/m² 12,4 °C 21,9 °C 27,4 km/h (5 Bft)
03.09.2026 11:30 20,1 °C 21,1 °C 16,7 °C 61 % 1017,6 hPa 0,0 l/m² 13,1 km/h (3 Bft) W 262 ° 0 min 1,4 UV-I 220 W/m² 12,3 °C 20,1 °C 20,9 km/h (4 Bft)
03.09.2026 10:30 19,8 °C 21,1 °C 16,7 °C 61 % 1018,2 hPa 0,0 l/m² 10,6 km/h (2 Bft) W 267 ° 18 min 1,3 UV-I 253 W/m² 12,1 °C 19,8 °C 20,9 km/h (4 Bft)
03.09.2026 09:30 18,9 °C 20,0 °C 16,7 °C 67 % 1018,4 hPa 0,0 l/m² 5,3 km/h (1 Bft) W-SW 254 ° 10 min 1,0 UV-I 223 W/m² 12,6 °C 18,9 °C 9,7 km/h (2 Bft)
03.09.2026 08:30 17,6 °C 17,8 °C 16,7 °C 71 % 1018,8 hPa 0,0 l/m² 6,9 km/h (2 Bft) NW 306 ° 42 min 0,6 UV-I 200 W/m² 12,3 °C 17,6 °C 9,7 km/h (2 Bft)
03.09.2026 07:30 13,9 °C 13,3 °C 16,7 °C 84 % 1019,2 hPa 0,0 l/m² 6,0 km/h (2 Bft) W-SW 256 ° 2 min 0,0 UV-I 62 W/m² 11,2 °C 13,9 °C 9,7 km/h (2 Bft)
03.09.2026 06:30 12,6 °C 11,1 °C 16,7 °C 86 % 1018,9 hPa 0,0 l/m² 0,8 km/h (0 Bft) W-SW 244 ° 0 min 0,0 UV-I 7 W/m² 10,3 °C 12,6 °C 4,8 km/h (1 Bft)
03.09.2026 05:30 12,6 °C 10,0 °C 16,7 °C 84 % 1019,0 hPa 0,0 l/m² 1,0 km/h (0 Bft) SW 234 ° 0 min 0,0 UV-I 5 W/m² 10,0 °C 12,6 °C 3,2 km/h (1 Bft)
03.09.2026 04:30 12,7 °C 11,1 °C 16,7 °C 86 % 1019,4 hPa 0,0 l/m² 1,9 km/h (1 Bft) W 267 ° 0 min 0,0 UV-I 5 W/m² 10,4 °C 12,7 °C 3,2 km/h (1 Bft)
03.09.2026 03:30 12,3 °C 10,6 °C 16,7 °C 87 % 1019,4 hPa 0,0 l/m² 0,0 km/h (0 Bft) W 260 ° 0 min 0,0 UV-I 5 W/m² 10,2 °C 12,3 °C 0,0 km/h (0 Bft)
03.09.2026 02:30 12,6 °C 9,4 °C 17,2 °C 84 % 1019,8 hPa 0,0 l/m² 0,0 km/h (0 Bft) W 265 ° 0 min 0,0 UV-I 5 W/m² 10,0 °C 12,6 °C 0,0 km/h (0 Bft)
03.09.2026 01:30 13,5 °C 10,0 °C 17,2 °C 85 % 1019,7 hPa 0,0 l/m² 3,9 km/h (1 Bft) W-NW 292 ° 0 min 0,0 UV-I 5 W/m² 11,0 °C 13,5 °C 6,4 km/h (2 Bft)
03.09.2026 00:30 12,3 °C 8,9 °C 17,8 °C 86 % 1019,7 hPa 0,0 l/m² 1,2 km/h (1 Bft) W 278 ° 0 min 0,0 UV-I 5 W/m² 10,0 °C 12,3 °C 4,8 km/h (1 Bft)
03.09.2026 00:00 12,7 °C 9,4 °C 17,8 °C 85 % 1019,6 hPa 0,0 l/m² 0,0 km/h (0 Bft) W-NW 292 ° 0 min 0,0 UV-I 5 W/m² 10,2 °C 12,7 °C 0,0 km/h (0 Bft)
_ Min-Zeit 03:48 01:00 08:34 13:58 15:00 - 06:02 - - - - - 02:34 03:48 06:00
Minimum _ 12,2 °C 8,9 °C 16,1 °C 51 % 1015,2 hPa - 0,0 km/h (0 Bft) - - - - - 9,8 °C 12,2 °C 0,0 km/h (0 Bft)
_ Max-Zeit 13:56 13:56 19:30 04:20 03:04 19:30 16:24 - - 19:30 13:42 13:52 18:08 13:56 14:32
Maximum _ 24,7 °C 30,6 °C 17,8 °C 87 % 1019,8 hPa 0,0 l/m² 20,3 km/h
W-NW (4 Bft)
- - 2 min 4,0 UV-I 870 W/m² 15,1 °C 24,6 °C 35,4 km/h
W-NW (5 Bft)
Durchschnitt _ 17,7 °C 17,2 °C 17,1 °C 71 % 1017,8 hPa #0,0 l/m² 7,5 km/h (2 Bft) W - #3:18 h 1,3 UV-I 141 W/m² 12,2 °C 17,7 °C 13,7 km/h (3 Bft)